createdAt,value
2023-03-05T00:04:48.600Z,21.5
2023-03-05T00:10:42.094Z,21.5
2023-03-05T00:16:34.329Z,21.4
2023-03-05T00:22:10.865Z,21.4
2023-03-05T00:27:32.429Z,21.4
2023-03-05T00:33:27.987Z,21.4
2023-03-05T00:39:20.698Z,21.3
2023-03-05T00:45:14.287Z,21.4
2023-03-05T00:51:07.559Z,21.3
2023-03-05T00:56:59.637Z,21.3
2023-03-05T01:02:53.174Z,21.3
2023-03-05T01:08:46.416Z,21.3
2023-03-05T01:20:15.609Z,21.3
2023-03-05T01:31:45.333Z,21.2
2023-03-05T01:37:09.203Z,21.2
2023-03-05T01:43:02.266Z,21.2
2023-03-05T01:48:55.361Z,21.2
2023-03-05T01:54:33.212Z,21.2
2023-03-05T02:00:26.091Z,21.2
2023-03-05T02:17:17.439Z,21.1
2023-03-05T02:23:10.093Z,21.1
2023-03-05T02:28:46.607Z,21.1
2023-03-05T02:34:23.908Z,21.1
2023-03-05T02:40:16.787Z,21.1
2023-03-05T02:46:08.972Z,21.1
2023-03-05T02:52:01.791Z,21.1
2023-03-05T02:57:55.244Z,21.1
2023-03-05T03:03:49.012Z,21.1
2023-03-05T03:20:41.116Z,21
2023-03-05T03:31:56.298Z,21
2023-03-05T03:43:25.495Z,21
2023-03-05T03:49:02.624Z,20.9
2023-03-05T03:54:54.311Z,20.9
2023-03-05T04:00:46.996Z,20.8
2023-03-05T04:06:39.504Z,20.8
2023-03-05T04:12:31.047Z,20.8
2023-03-05T04:18:08.748Z,20.8
2023-03-05T04:23:45.844Z,20.8
2023-03-05T04:29:38.393Z,20.8
2023-03-05T04:35:31.927Z,20.9
2023-03-05T04:41:24.463Z,20.8
2023-03-05T04:47:16.646Z,20.8
2023-03-05T04:53:09.048Z,20.9
2023-03-05T04:58:32.085Z,20.8
2023-03-05T05:10:02.016Z,20.8
2023-03-05T05:15:54.471Z,20.8
2023-03-05T05:21:48.245Z,20.8
2023-03-05T05:27:40.609Z,20.8
2023-03-05T05:33:33.929Z,20.8
2023-03-05T05:39:26.544Z,20.8
2023-03-05T05:45:19.483Z,20.8
2023-03-05T05:51:12.789Z,20.7
2023-03-05T06:02:43.404Z,20.7
2023-03-05T06:08:38.600Z,20.6
2023-03-05T06:14:31.653Z,20.6
2023-03-05T06:20:33.121Z,20.6
2023-03-05T06:26:24.943Z,20.7
2023-03-05T06:32:17.939Z,20.7
2023-03-05T06:38:10.707Z,20.7
2023-03-05T06:44:03.807Z,20.7
2023-03-05T06:49:41.135Z,20.7
2023-03-05T06:55:34.558Z,20.7
2023-03-05T07:01:28.377Z,20.6
2023-03-05T07:07:21.047Z,20.7
2023-03-05T07:13:15.731Z,20.7
2023-03-05T07:19:09.192Z,20.7
2023-03-05T07:25:01.824Z,20.7
2023-03-05T07:30:55.158Z,20.7
2023-03-05T07:36:48.203Z,20.7
2023-03-05T07:42:25.777Z,20.7
2023-03-05T07:48:19.361Z,20.6
2023-03-05T07:59:51.317Z,20.6
2023-03-05T08:05:45.639Z,20.6
2023-03-05T08:11:38.646Z,20.6
2023-03-05T08:17:31.664Z,20.6
2023-03-05T08:23:09.651Z,20.7
2023-03-05T08:29:02.277Z,20.6
2023-03-05T08:34:58.006Z,20.6
2023-03-05T08:40:51.389Z,20.7
2023-03-05T08:46:44.720Z,20.6
2023-03-05T08:52:38.020Z,20.7
2023-03-05T08:58:30.771Z,20.7
2023-03-05T09:10:01.435Z,20.7
2023-03-05T09:15:53.626Z,20.7
2023-03-05T09:21:47.522Z,20.7
2023-03-05T09:27:41.469Z,20.7
2023-03-05T09:33:35.422Z,20.7
2023-03-05T09:39:28.909Z,20.7
2023-03-05T09:45:21.448Z,20.7
2023-03-05T09:51:14.855Z,20.7
2023-03-05T09:57:07.190Z,20.7
2023-03-05T10:02:59.330Z,20.7
2023-03-05T10:08:52.032Z,20.7
2023-03-05T10:14:45.253Z,20.7
2023-03-05T10:20:23.051Z,20.7
2023-03-05T10:26:00.218Z,20.8
2023-03-05T10:31:52.948Z,20.8
2023-03-05T10:37:47.588Z,20.8
2023-03-05T10:43:40.626Z,20.8
2023-03-05T10:49:33.784Z,20.8
2023-03-05T11:01:04.633Z,20.8
2023-03-05T11:07:00.434Z,20.8
2023-03-05T11:18:33.257Z,20.8
2023-03-05T11:24:28.455Z,20.9
2023-03-05T11:30:28.311Z,20.9
2023-03-05T11:41:59.610Z,20.9
2023-03-05T11:47:54.061Z,21
2023-03-05T11:53:48.762Z,21
2023-03-05T11:59:42.841Z,21
2023-03-05T12:11:16.126Z,21
2023-03-05T12:17:10.416Z,21
2023-03-05T12:28:25.756Z,21.1
2023-03-05T12:34:22.468Z,21.1
2023-03-05T12:40:38.269Z,21.1
2023-03-05T12:46:16.687Z,21.1
2023-03-05T13:09:05.986Z,21.2
2023-03-05T13:15:00.660Z,21.2
2023-03-05T13:20:53.921Z,21.2
2023-03-05T13:26:47.587Z,21.2
2023-03-05T13:32:41.026Z,21.2
2023-03-05T13:38:44.425Z,21.2
2023-03-05T13:44:39.109Z,21.2
2023-03-05T13:50:33.489Z,21.2
2023-03-05T13:56:26.548Z,21.2
2023-03-05T14:02:23.402Z,21.3
2023-03-05T14:08:20.791Z,21.2
2023-03-05T14:14:14.559Z,21.3
2023-03-05T14:19:20.924Z,21.3
2023-03-05T14:25:21.631Z,21.3
2023-03-05T14:31:16.165Z,21.2
2023-03-05T14:37:10.003Z,21.2
2023-03-05T14:59:23.777Z,21.1
2023-03-05T15:05:19.390Z,21.1
2023-03-05T15:11:12.505Z,21.1
2023-03-05T15:17:05.621Z,21.1
2023-03-05T16:57:42.452Z,21.1
2023-03-05T17:31:34.476Z,21.1
2023-03-05T17:43:15.288Z,21.1
2023-03-05T17:48:52.611Z,21.1
2023-03-05T17:54:44.961Z,21.1
2023-03-05T18:00:39.428Z,21.1
2023-03-05T18:17:48.772Z,21.1
2023-03-05T18:23:43.958Z,21.1
2023-03-05T18:29:36.984Z,21.1
2023-03-05T18:35:29.494Z,21.1
2023-03-05T18:52:43.916Z,21.1
2023-03-05T18:58:36.133Z,21.1
2023-03-05T19:04:29.587Z,21
2023-03-05T19:21:39.137Z,20.9
2023-03-05T19:27:31.729Z,20.9
2023-03-05T19:33:25.117Z,20.9
2023-03-05T19:39:18.161Z,20.9
2023-03-05T19:45:11.642Z,20.9
2023-03-05T19:51:07.585Z,20.9
2023-03-05T20:02:09.132Z,20.9
2023-03-05T20:07:46.643Z,20.9
2023-03-05T20:13:41.482Z,20.9
2023-03-05T20:19:34.814Z,20.9
2023-03-05T20:25:32.040Z,20.9
2023-03-05T20:31:13.525Z,20.9
2023-03-05T20:37:08.063Z,20.9
2023-03-05T20:48:24.985Z,20.8
2023-03-05T20:54:03.380Z,20.8
2023-03-05T20:59:26.360Z,20.8
2023-03-05T21:04:49.589Z,20.8
2023-03-05T21:10:12.759Z,20.8
2023-03-05T21:16:06.464Z,20.8
2023-03-05T21:21:46.091Z,20.8
2023-03-05T21:27:39.798Z,20.8
2023-03-05T21:33:17.296Z,20.8
2023-03-05T21:38:57.280Z,20.8
2023-03-05T21:44:50.189Z,20.8
2023-03-05T21:50:43.176Z,20.8
2023-03-05T21:56:36.105Z,20.8
2023-03-05T22:13:41.028Z,20.8
2023-03-05T22:25:13.335Z,20.8
2023-03-05T22:31:06.139Z,20.8
2023-03-05T22:36:43.935Z,20.8
2023-03-05T22:42:06.050Z,20.8
2023-03-05T22:47:58.145Z,20.7
2023-03-05T22:53:51.118Z,20.7
2023-03-05T22:59:12.205Z,20.7
2023-03-05T23:04:50.070Z,20.7
2023-03-05T23:10:43.896Z,20.7
2023-03-05T23:21:42.045Z,20.8
2023-03-05T23:27:19.399Z,20.8
2023-03-05T23:32:57.347Z,20.8
2023-03-05T23:38:35.078Z,20.8
2023-03-05T23:49:50.259Z,20.7
